sensor_id;sensor_type;location;lat;lon;timestamp;pressure;altitude;pressure_sealevel;temperature;humidity
36828;BME280;22766;48.042;11.192;2023-03-25T00:01:14;94545.06;;;7.45;100.00
36828;BME280;22766;48.042;11.192;2023-03-25T00:03:42;94541.34;;;7.57;100.00
36828;BME280;22766;48.042;11.192;2023-03-25T00:06:09;94537.47;;;7.71;100.00
36828;BME280;22766;48.042;11.192;2023-03-25T00:08:37;94533.06;;;7.81;100.00
36828;BME280;22766;48.042;11.192;2023-03-25T00:11:05;94536.38;;;7.91;100.00
36828;BME280;22766;48.042;11.192;2023-03-25T00:13:33;94532.41;;;7.97;100.00
36828;BME280;22766;48.042;11.192;2023-03-25T00:16:02;94528.06;;;7.97;100.00
36828;BME280;22766;48.042;11.192;2023-03-25T00:18:30;94532.03;;;7.92;100.00
36828;BME280;22766;48.042;11.192;2023-03-25T00:21:01;94526.09;;;7.91;100.00
36828;BME280;22766;48.042;11.192;2023-03-25T00:23:29;94524.75;;;7.87;100.00
36828;BME280;22766;48.042;11.192;2023-03-25T00:25:56;94526.41;;;7.88;100.00
36828;BME280;22766;48.042;11.192;2023-03-25T00:28:28;94527.25;;;7.97;100.00
36828;BME280;22766;48.042;11.192;2023-03-25T00:31:00;94521.69;;;8.01;100.00
36828;BME280;22766;48.042;11.192;2023-03-25T00:33:28;94537.16;;;8.09;100.00
36828;BME280;22766;48.042;11.192;2023-03-25T00:35:55;94539.94;;;8.16;100.00
36828;BME280;22766;48.042;11.192;2023-03-25T00:38:28;94543.50;;;8.15;100.00
36828;BME280;22766;48.042;11.192;2023-03-25T00:43:39;94555.41;;;8.33;100.00
36828;BME280;22766;48.042;11.192;2023-03-25T00:46:06;94562.81;;;8.36;100.00
36828;BME280;22766;48.042;11.192;2023-03-25T00:48:33;94558.25;;;8.30;100.00
36828;BME280;22766;48.042;11.192;2023-03-25T00:51:00;94545.75;;;8.35;100.00
36828;BME280;22766;48.042;11.192;2023-03-25T00:53:33;94537.97;;;8.45;100.00
36828;BME280;22766;48.042;11.192;2023-03-25T00:56:01;94536.94;;;8.38;100.00
36828;BME280;22766;48.042;11.192;2023-03-25T00:58:28;94526.53;;;8.47;100.00
36828;BME280;22766;48.042;11.192;2023-03-25T01:00:55;94529.88;;;8.40;100.00
36828;BME280;22766;48.042;11.192;2023-03-25T01:03:24;94532.66;;;8.46;100.00
36828;BME280;22766;48.042;11.192;2023-03-25T01:05:51;94532.19;;;8.51;100.00
36828;BME280;22766;48.042;11.192;2023-03-25T01:08:21;94532.56;;;8.56;100.00
36828;BME280;22766;48.042;11.192;2023-03-25T01:10:57;94526.25;;;8.51;100.00
36828;BME280;22766;48.042;11.192;2023-03-25T01:13:24;94521.00;;;8.60;100.00
36828;BME280;22766;48.042;11.192;2023-03-25T01:15:50;94520.63;;;8.55;100.00
36828;BME280;22766;48.042;11.192;2023-03-25T01:18:18;94513.41;;;8.59;100.00
36828;BME280;22766;48.042;11.192;2023-03-25T01:20:44;94513.06;;;8.54;100.00
36828;BME280;22766;48.042;11.192;2023-03-25T01:23:11;94516.50;;;8.36;100.00
36828;BME280;22766;48.042;11.192;2023-03-25T01:25:38;94509.41;;;8.56;100.00
36828;BME280;22766;48.042;11.192;2023-03-25T01:28:05;94511.66;;;8.59;100.00
36828;BME280;22766;48.042;11.192;2023-03-25T01:30:33;94509.00;;;8.43;100.00
36828;BME280;22766;48.042;11.192;2023-03-25T01:33:00;94508.19;;;8.42;100.00
36828;BME280;22766;48.042;11.192;2023-03-25T01:35:27;94507.59;;;8.48;100.00
36828;BME280;22766;48.042;11.192;2023-03-25T01:37:54;94505.47;;;8.44;100.00
36828;BME280;22766;48.042;11.192;2023-03-25T01:40:22;94500.31;;;8.44;100.00
36828;BME280;22766;48.042;11.192;2023-03-25T01:42:50;94501.72;;;8.38;100.00
36828;BME280;22766;48.042;11.192;2023-03-25T01:47:55;94518.50;;;8.25;100.00
36828;BME280;22766;48.042;11.192;2023-03-25T01:50:26;94525.13;;;8.27;100.00
36828;BME280;22766;48.042;11.192;2023-03-25T01:52:55;94516.00;;;8.33;100.00
36828;BME280;22766;48.042;11.192;2023-03-25T01:55:24;94521.66;;;8.36;100.00
36828;BME280;22766;48.042;11.192;2023-03-25T01:57:55;94516.97;;;8.14;100.00
36828;BME280;22766;48.042;11.192;2023-03-25T02:00:23;94510.78;;;8.25;100.00
36828;BME280;22766;48.042;11.192;2023-03-25T02:02:53;94496.19;;;8.25;100.00
36828;BME280;22766;48.042;11.192;2023-03-25T02:05:50;94495.13;;;8.18;100.00
36828;BME280;22766;48.042;11.192;2023-03-25T02:08:19;94487.22;;;7.94;100.00
36828;BME280;22766;48.042;11.192;2023-03-25T02:10:47;94492.94;;;8.06;100.00
36828;BME280;22766;48.042;11.192;2023-03-25T02:13:14;94472.47;;;7.96;100.00
36828;BME280;22766;48.042;11.192;2023-03-25T02:15:59;94486.78;;;7.99;100.00
36828;BME280;22766;48.042;11.192;2023-03-25T02:18:37;94476.66;;;7.97;100.00
36828;BME280;22766;48.042;11.192;2023-03-25T02:21:33;94467.22;;;7.80;100.00
36828;BME280;22766;48.042;11.192;2023-03-25T02:27:46;94487.25;;;7.77;100.00
36828;BME280;22766;48.042;11.192;2023-03-25T02:41:15;94508.38;;;7.53;100.00
36828;BME280;22766;48.042;11.192;2023-03-25T02:44:28;94520.78;;;7.57;100.00
36828;BME280;22766;48.042;11.192;2023-03-25T02:47:00;94524.16;;;7.58;100.00
36828;BME280;22766;48.042;11.192;2023-03-25T02:49:35;94510.00;;;7.54;100.00
36828;BME280;22766;48.042;11.192;2023-03-25T02:52:25;94535.34;;;7.67;100.00
36828;BME280;22766;48.042;11.192;2023-03-25T02:54:56;94525.63;;;7.61;100.00
36828;BME280;22766;48.042;11.192;2023-03-25T02:57:30;94517.09;;;7.60;100.00
36828;BME280;22766;48.042;11.192;2023-03-25T02:59:58;94497.44;;;7.51;100.00
36828;BME280;22766;48.042;11.192;2023-03-25T03:02:28;94486.31;;;7.42;100.00
36828;BME280;22766;48.042;11.192;2023-03-25T03:04:58;94496.41;;;7.44;100.00
36828;BME280;22766;48.042;11.192;2023-03-25T03:07:32;94485.19;;;7.45;100.00
36828;BME280;22766;48.042;11.192;2023-03-25T03:10:13;94497.19;;;7.27;100.00
36828;BME280;22766;48.042;11.192;2023-03-25T03:15:41;94492.84;;;7.10;100.00
36828;BME280;22766;48.042;11.192;2023-03-25T03:21:08;94503.00;;;7.02;100.00
36828;BME280;22766;48.042;11.192;2023-03-25T03:31:45;94494.31;;;6.85;100.00
36828;BME280;22766;48.042;11.192;2023-03-25T03:34:53;94496.47;;;6.80;100.00
36828;BME280;22766;48.042;11.192;2023-03-25T03:37:28;94493.91;;;6.80;100.00
36828;BME280;22766;48.042;11.192;2023-03-25T03:39:58;94501.91;;;6.77;100.00
36828;BME280;22766;48.042;11.192;2023-03-25T03:45:02;94503.50;;;6.78;100.00
36828;BME280;22766;48.042;11.192;2023-03-25T03:47:35;94497.19;;;6.73;100.00
36828;BME280;22766;48.042;11.192;2023-03-25T03:50:08;94489.75;;;6.79;100.00
36828;BME280;22766;48.042;11.192;2023-03-25T03:52:45;94487.25;;;6.60;100.00
36828;BME280;22766;48.042;11.192;2023-03-25T03:55:20;94493.44;;;6.67;100.00
36828;BME280;22766;48.042;11.192;2023-03-25T03:58:13;94499.22;;;6.69;100.00
36828;BME280;22766;48.042;11.192;2023-03-25T04:00:47;94504.81;;;6.65;100.00
36828;BME280;22766;48.042;11.192;2023-03-25T04:03:21;94497.19;;;6.73;100.00
36828;BME280;22766;48.042;11.192;2023-03-25T04:05:54;94499.22;;;6.69;100.00
36828;BME280;22766;48.042;11.192;2023-03-25T04:08:32;94501.41;;;6.64;100.00
36828;BME280;22766;48.042;11.192;2023-03-25T04:11:11;94505.84;;;6.72;100.00
36828;BME280;22766;48.042;11.192;2023-03-25T04:13:42;94503.69;;;6.67;100.00
36828;BME280;22766;48.042;11.192;2023-03-25T04:16:10;94521.25;;;6.72;100.00
36828;BME280;22766;48.042;11.192;2023-03-25T04:18:37;94520.41;;;6.71;100.00
36828;BME280;22766;48.042;11.192;2023-03-25T04:21:05;94540.66;;;6.84;100.00
36828;BME280;22766;48.042;11.192;2023-03-25T04:23:32;94530.63;;;6.90;100.00
36828;BME280;22766;48.042;11.192;2023-03-25T04:26:00;94527.53;;;6.87;100.00
36828;BME280;22766;48.042;11.192;2023-03-25T04:28:29;94529.53;;;6.93;100.00
36828;BME280;22766;48.042;11.192;2023-03-25T04:30:57;94519.41;;;6.91;100.00
36828;BME280;22766;48.042;11.192;2023-03-25T04:33:26;94527.38;;;6.88;100.00
36828;BME280;22766;48.042;11.192;2023-03-25T04:35:57;94526.25;;;7.00;100.00
36828;BME280;22766;48.042;11.192;2023-03-25T04:38:27;94533.28;;;6.98;100.00
36828;BME280;22766;48.042;11.192;2023-03-25T04:40:55;94522.66;;;6.93;100.00
36828;BME280;22766;48.042;11.192;2023-03-25T04:43:22;94518.75;;;6.89;100.00
36828;BME280;22766;48.042;11.192;2023-03-25T04:45:48;94514.50;;;6.98;100.00
36828;BME280;22766;48.042;11.192;2023-03-25T04:48:22;94507.53;;;6.90;100.00
36828;BME280;22766;48.042;11.192;2023-03-25T04:50:49;94503.75;;;6.85;100.00
36828;BME280;22766;48.042;11.192;2023-03-25T04:53:21;94504.13;;;6.90;100.00
36828;BME280;22766;48.042;11.192;2023-03-25T04:55:48;94503.09;;;6.83;100.00
36828;BME280;22766;48.042;11.192;2023-03-25T04:58:16;94517.47;;;6.66;100.00
36828;BME280;22766;48.042;11.192;2023-03-25T05:00:44;94511.66;;;6.74;100.00
36828;BME280;22766;48.042;11.192;2023-03-25T05:03:12;94518.88;;;6.88;100.00
36828;BME280;22766;48.042;11.192;2023-03-25T05:05:38;94521.72;;;6.85;100.00
36828;BME280;22766;48.042;11.192;2023-03-25T05:08:05;94513.69;;;6.70;100.00
36828;BME280;22766;48.042;11.192;2023-03-25T05:10:33;94497.63;;;6.68;100.00
36828;BME280;22766;48.042;11.192;2023-03-25T05:13:06;94501.94;;;6.68;100.00
36828;BME280;22766;48.042;11.192;2023-03-25T05:15:34;94530.94;;;6.78;100.00
36828;BME280;22766;48.042;11.192;2023-03-25T05:18:12;94522.91;;;6.90;100.00
36828;BME280;22766;48.042;11.192;2023-03-25T05:20:42;94545.06;;;6.91;100.00
36828;BME280;22766;48.042;11.192;2023-03-25T05:23:11;94533.84;;;6.92;100.00
36828;BME280;22766;48.042;11.192;2023-03-25T05:25:42;94532.63;;;6.96;100.00
36828;BME280;22766;48.042;11.192;2023-03-25T05:28:09;94523.06;;;6.89;100.00
36828;BME280;22766;48.042;11.192;2023-03-25T05:30:40;94520.19;;;6.92;100.00
36828;BME280;22766;48.042;11.192;2023-03-25T05:33:08;94531.94;;;6.94;100.00
36828;BME280;22766;48.042;11.192;2023-03-25T05:35:38;94520.66;;;6.87;100.00
36828;BME280;22766;48.042;11.192;2023-03-25T05:38:05;94517.25;;;6.87;100.00
36828;BME280;22766;48.042;11.192;2023-03-25T05:40:38;94531.44;;;6.91;100.00
36828;BME280;22766;48.042;11.192;2023-03-25T05:43:06;94532.91;;;6.93;100.00
36828;BME280;22766;48.042;11.192;2023-03-25T05:45:33;94537.91;;;6.95;100.00
36828;BME280;22766;48.042;11.192;2023-03-25T05:48:02;94526.03;;;6.84;100.00
36828;BME280;22766;48.042;11.192;2023-03-25T05:50:29;94518.88;;;6.88;100.00
36828;BME280;22766;48.042;11.192;2023-03-25T05:52:57;94531.16;;;6.84;98.80
36828;BME280;22766;48.042;11.192;2023-03-25T05:55:25;94545.91;;;6.82;98.18
36828;BME280;22766;48.042;11.192;2023-03-25T05:57:53;94555.94;;;6.76;95.76
36828;BME280;22766;48.042;11.192;2023-03-25T06:00:20;94546.81;;;6.91;92.69
36828;BME280;22766;48.042;11.192;2023-03-25T06:02:49;94560.59;;;6.90;91.55
36828;BME280;22766;48.042;11.192;2023-03-25T06:05:18;94569.41;;;6.87;91.71
36828;BME280;22766;48.042;11.192;2023-03-25T06:07:49;94571.66;;;6.90;89.63
36828;BME280;22766;48.042;11.192;2023-03-25T06:10:17;94585.88;;;6.85;92.12
36828;BME280;22766;48.042;11.192;2023-03-25T06:12:45;94582.38;;;6.86;90.95
36828;BME280;22766;48.042;11.192;2023-03-25T06:15:14;94589.16;;;6.68;93.55
36828;BME280;22766;48.042;11.192;2023-03-25T06:17:43;94595.34;;;6.65;95.49
36828;BME280;22766;48.042;11.192;2023-03-25T06:20:13;94597.94;;;6.65;98.14
36828;BME280;22766;48.042;11.192;2023-03-25T06:22:43;94597.53;;;6.60;100.00
36828;BME280;22766;48.042;11.192;2023-03-25T06:25:15;94595.13;;;6.49;100.00
36828;BME280;22766;48.042;11.192;2023-03-25T06:27:43;94600.81;;;6.43;100.00
36828;BME280;22766;48.042;11.192;2023-03-25T06:30:12;94591.22;;;6.45;100.00
36828;BME280;22766;48.042;11.192;2023-03-25T06:32:39;94609.19;;;6.35;100.00
36828;BME280;22766;48.042;11.192;2023-03-25T06:35:08;94604.47;;;6.21;100.00
36828;BME280;22766;48.042;11.192;2023-03-25T06:37:36;94611.59;;;6.18;100.00
36828;BME280;22766;48.042;11.192;2023-03-25T06:40:09;94611.06;;;6.14;100.00
36828;BME280;22766;48.042;11.192;2023-03-25T06:42:35;94613.38;;;6.17;100.00
36828;BME280;22766;48.042;11.192;2023-03-25T06:45:20;94617.16;;;6.23;100.00
36828;BME280;22766;48.042;11.192;2023-03-25T06:47:59;94609.88;;;6.28;100.00
36828;BME280;22766;48.042;11.192;2023-03-25T06:50:26;94612.56;;;6.17;100.00
36828;BME280;22766;48.042;11.192;2023-03-25T06:52:53;94618.09;;;6.12;100.00
36828;BME280;22766;48.042;11.192;2023-03-25T06:55:19;94620.94;;;6.19;100.00
36828;BME280;22766;48.042;11.192;2023-03-25T06:57:46;94622.28;;;6.23;100.00
36828;BME280;22766;48.042;11.192;2023-03-25T07:00:13;94627.28;;;6.24;100.00
36828;BME280;22766;48.042;11.192;2023-03-25T07:02:40;94624.56;;;6.35;100.00
36828;BME280;22766;48.042;11.192;2023-03-25T07:05:07;94626.59;;;6.51;100.00
36828;BME280;22766;48.042;11.192;2023-03-25T07:07:34;94634.00;;;6.44;100.00
36828;BME280;22766;48.042;11.192;2023-03-25T07:10:01;94633.47;;;6.50;100.00
36828;BME280;22766;48.042;11.192;2023-03-25T07:12:27;94636.56;;;6.35;100.00
36828;BME280;22766;48.042;11.192;2023-03-25T07:14:55;94632.53;;;6.42;100.00
36828;BME280;22766;48.042;11.192;2023-03-25T07:17:22;94642.66;;;6.34;100.00
36828;BME280;22766;48.042;11.192;2023-03-25T07:19:49;94637.25;;;6.37;100.00
36828;BME280;22766;48.042;11.192;2023-03-25T07:22:17;94642.66;;;6.34;100.00
36828;BME280;22766;48.042;11.192;2023-03-25T07:24:43;94641.00;;;6.42;100.00
36828;BME280;22766;48.042;11.192;2023-03-25T07:27:11;94642.38;;;6.46;100.00
36828;BME280;22766;48.042;11.192;2023-03-25T07:29:40;94650.06;;;6.56;100.00
36828;BME280;22766;48.042;11.192;2023-03-25T07:32:07;94640.47;;;6.48;100.00
36828;BME280;22766;48.042;11.192;2023-03-25T07:34:34;94636.56;;;6.35;100.00
36828;BME280;22766;48.042;11.192;2023-03-25T07:37:01;94649.00;;;6.30;100.00
36828;BME280;22766;48.042;11.192;2023-03-25T07:39:27;94647.34;;;6.29;100.00
36828;BME280;22766;48.042;11.192;2023-03-25T07:41:54;94649.00;;;6.39;100.00
36828;BME280;22766;48.042;11.192;2023-03-25T07:44:35;94646.66;;;6.65;100.00
36828;BME280;22766;48.042;11.192;2023-03-25T07:47:02;94648.25;;;6.95;100.00
36828;BME280;22766;48.042;11.192;2023-03-25T07:49:29;94639.81;;;7.12;100.00
36828;BME280;22766;48.042;11.192;2023-03-25T07:51:56;94637.31;;;7.29;100.00
36828;BME280;22766;48.042;11.192;2023-03-25T07:54:23;94629.97;;;7.44;100.00
36828;BME280;22766;48.042;11.192;2023-03-25T07:56:50;94648.41;;;7.57;100.00
36828;BME280;22766;48.042;11.192;2023-03-25T07:59:18;94642.94;;;7.70;100.00
36828;BME280;22766;48.042;11.192;2023-03-25T08:01:44;94645.50;;;7.70;100.00
36828;BME280;22766;48.042;11.192;2023-03-25T08:04:11;94648.88;;;7.97;100.00
36828;BME280;22766;48.042;11.192;2023-03-25T08:06:39;94650.50;;;7.98;100.00
36828;BME280;22766;48.042;11.192;2023-03-25T08:09:06;94651.44;;;7.97;100.00
36828;BME280;22766;48.042;11.192;2023-03-25T08:11:33;94649.56;;;7.72;100.00
36828;BME280;22766;48.042;11.192;2023-03-25T08:14:00;94652.94;;;7.73;100.00
36828;BME280;22766;48.042;11.192;2023-03-25T08:16:27;94642.88;;;7.62;100.00
36828;BME280;22766;48.042;11.192;2023-03-25T08:18:53;94658.09;;;7.73;100.00
36828;BME280;22766;48.042;11.192;2023-03-25T08:21:20;94654.69;;;7.72;100.00
36828;BME280;22766;48.042;11.192;2023-03-25T08:23:52;94673.97;;;7.86;100.00
36828;BME280;22766;48.042;11.192;2023-03-25T08:26:24;94676.53;;;8.13;100.00
36828;BME280;22766;48.042;11.192;2023-03-25T08:28:52;94676.47;;;8.22;100.00
36828;BME280;22766;48.042;11.192;2023-03-25T08:31:24;94678.84;;;8.33;100.00
36828;BME280;22766;48.042;11.192;2023-03-25T08:33:51;94684.00;;;8.06;100.00
36828;BME280;22766;48.042;11.192;2023-03-25T08:36:18;94689.72;;;8.00;100.00
36828;BME280;22766;48.042;11.192;2023-03-25T08:38:49;94681.91;;;7.92;100.00
36828;BME280;22766;48.042;11.192;2023-03-25T08:41:16;94686.38;;;7.90;100.00
36828;BME280;22766;48.042;11.192;2023-03-25T08:43:43;94673.00;;;7.87;100.00
36828;BME280;22766;48.042;11.192;2023-03-25T08:46:10;94675.56;;;7.69;100.00
36828;BME280;22766;48.042;11.192;2023-03-25T08:48:38;94679.31;;;7.75;100.00
36828;BME280;22766;48.042;11.192;2023-03-25T08:51:05;94675.16;;;7.64;100.00
36828;BME280;22766;48.042;11.192;2023-03-25T08:53:32;94676.38;;;7.60;100.00
36828;BME280;22766;48.042;11.192;2023-03-25T08:55:58;94666.59;;;7.73;100.00
36828;BME280;22766;48.042;11.192;2023-03-25T08:58:25;94670.41;;;7.69;100.00
36828;BME280;22766;48.042;11.192;2023-03-25T09:00:54;94673.47;;;8.00;100.00
36828;BME280;22766;48.042;11.192;2023-03-25T09:03:22;94675.38;;;8.25;100.00
36828;BME280;22766;48.042;11.192;2023-03-25T09:05:49;94665.69;;;8.36;100.00
36828;BME280;22766;48.042;11.192;2023-03-25T09:08:16;94668.25;;;8.54;100.00
36828;BME280;22766;48.042;11.192;2023-03-25T09:10:43;94678.16;;;8.84;99.15
36828;BME280;22766;48.042;11.192;2023-03-25T09:13:10;94680.63;;;9.11;94.58
36828;BME280;22766;48.042;11.192;2023-03-25T09:15:37;94663.00;;;9.24;91.18
36828;BME280;22766;48.042;11.192;2023-03-25T09:18:03;94661.47;;;9.14;90.34
36828;BME280;22766;48.042;11.192;2023-03-25T09:20:32;94668.84;;;9.09;91.68
36828;BME280;22766;48.042;11.192;2023-03-25T09:22:58;94646.66;;;9.41;91.30
36828;BME280;22766;48.042;11.192;2023-03-25T09:25:26;94655.63;;;9.71;91.81
36828;BME280;22766;48.042;11.192;2023-03-25T09:27:53;94650.53;;;9.79;90.13
36828;BME280;22766;48.042;11.192;2023-03-25T09:30:20;94641.81;;;9.80;83.83
36828;BME280;22766;48.042;11.192;2023-03-25T09:32:47;94645.16;;;9.65;85.34
36828;BME280;22766;48.042;11.192;2023-03-25T09:35:14;94635.81;;;9.30;83.50
36828;BME280;22766;48.042;11.192;2023-03-25T09:37:42;94639.59;;;9.18;85.03
36828;BME280;22766;48.042;11.192;2023-03-25T09:40:12;94646.16;;;9.38;85.97
36828;BME280;22766;48.042;11.192;2023-03-25T09:47:54;94625.69;;;9.78;76.42
36828;BME280;22766;48.042;11.192;2023-03-25T09:50:22;94631.16;;;9.33;83.01
36828;BME280;22766;48.042;11.192;2023-03-25T09:53:00;94626.50;;;9.37;79.78
36828;BME280;22766;48.042;11.192;2023-03-25T09:55:32;94626.78;;;9.68;82.99
36828;BME280;22766;48.042;11.192;2023-03-25T09:58:03;94605.59;;;9.98;75.39
36828;BME280;22766;48.042;11.192;2023-03-25T10:00:31;94625.66;;;10.12;77.50
36828;BME280;22766;48.042;11.192;2023-03-25T10:03:19;94613.38;;;10.06;78.19
36828;BME280;22766;48.042;11.192;2023-03-25T10:22:04;94604.75;;;9.31;78.92
36828;BME280;22766;48.042;11.192;2023-03-25T10:24:48;94613.53;;;9.55;80.40
36828;BME280;22766;48.042;11.192;2023-03-25T10:27:46;94615.91;;;9.82;78.29
36828;BME280;22766;48.042;11.192;2023-03-25T10:30:25;94615.06;;;9.73;78.95
36828;BME280;22766;48.042;11.192;2023-03-25T10:32:57;94607.72;;;9.53;80.66
36828;BME280;22766;48.042;11.192;2023-03-25T10:35:34;94610.16;;;9.54;79.70
36828;BME280;22766;48.042;11.192;2023-03-25T10:38:11;94622.22;;;9.54;77.46
36828;BME280;22766;48.042;11.192;2023-03-25T10:40:46;94610.66;;;9.24;80.65
36828;BME280;22766;48.042;11.192;2023-03-25T10:43:36;94615.31;;;9.20;79.88
36828;BME280;22766;48.042;11.192;2023-03-25T10:48:57;94604.94;;;9.38;77.40
36828;BME280;22766;48.042;11.192;2023-03-25T10:51:34;94603.13;;;9.30;80.20
36828;BME280;22766;48.042;11.192;2023-03-25T10:54:02;94601.44;;;9.47;79.94
36828;BME280;22766;48.042;11.192;2023-03-25T10:56:32;94590.06;;;9.66;80.14
36828;BME280;22766;48.042;11.192;2023-03-25T10:59:05;94589.91;;;9.67;80.90
36828;BME280;22766;48.042;11.192;2023-03-25T11:01:39;94585.72;;;9.66;82.61
36828;BME280;22766;48.042;11.192;2023-03-25T11:04:09;94580.22;;;9.69;81.64
36828;BME280;22766;48.042;11.192;2023-03-25T11:06:38;94589.03;;;9.51;79.88
36828;BME280;22766;48.042;11.192;2023-03-25T11:09:43;94575.69;;;9.21;77.41
36828;BME280;22766;48.042;11.192;2023-03-25T11:12:05;94585.84;;;9.15;82.36
36828;BME280;22766;48.042;11.192;2023-03-25T11:14:37;94582.28;;;9.16;82.85
36828;BME280;22766;48.042;11.192;2023-03-25T11:17:15;94588.69;;;9.12;81.19
36828;BME280;22766;48.042;11.192;2023-03-25T11:22:21;94578.97;;;9.31;81.10
36828;BME280;22766;48.042;11.192;2023-03-25T11:24:51;94575.09;;;9.27;82.54
36828;BME280;22766;48.042;11.192;2023-03-25T11:27:25;94580.06;;;9.21;84.43
36828;BME280;22766;48.042;11.192;2023-03-25T11:29:59;94572.22;;;9.30;87.00
36828;BME280;22766;48.042;11.192;2023-03-25T11:32:36;94576.47;;;9.48;84.70
36828;BME280;22766;48.042;11.192;2023-03-25T11:35:17;94566.97;;;9.48;81.30
36828;BME280;22766;48.042;11.192;2023-03-25T11:37:57;94579.06;;;9.56;82.67
36828;BME280;22766;48.042;11.192;2023-03-25T11:40:28;94575.91;;;9.70;82.79
36828;BME280;22766;48.042;11.192;2023-03-25T11:42:58;94566.25;;;9.88;84.79
36828;BME280;22766;48.042;11.192;2023-03-25T11:45:32;94570.66;;;10.03;80.01
36828;BME280;22766;48.042;11.192;2023-03-25T11:48:09;94554.38;;;10.03;79.55
36828;BME280;22766;48.042;11.192;2023-03-25T11:51:04;94569.50;;;9.98;79.83
36828;BME280;22766;48.042;11.192;2023-03-25T11:53:32;94556.78;;;10.04;79.19
36828;BME280;22766;48.042;11.192;2023-03-25T11:56:04;94554.53;;;10.01;81.08
36828;BME280;22766;48.042;11.192;2023-03-25T11:58:34;94553.59;;;10.26;81.91
36828;BME280;22766;48.042;11.192;2023-03-25T12:01:16;94532.97;;;10.43;75.95
36828;BME280;22766;48.042;11.192;2023-03-25T12:03:45;94544.88;;;10.68;79.69
36828;BME280;22766;48.042;11.192;2023-03-25T12:06:18;94531.41;;;10.96;74.75
36828;BME280;22766;48.042;11.192;2023-03-25T12:11:23;94535.47;;;10.83;75.33
36828;BME280;22766;48.042;11.192;2023-03-25T12:17:03;94530.84;;;10.06;79.35
36828;BME280;22766;48.042;11.192;2023-03-25T12:25:40;94543.19;;;9.70;85.39
36828;BME280;22766;48.042;11.192;2023-03-25T12:31:08;94539.34;;;9.74;85.41
36828;BME280;22766;48.042;11.192;2023-03-25T12:36:57;94538.56;;;9.82;82.02
36828;BME280;22766;48.042;11.192;2023-03-25T12:42:26;94523.13;;;9.32;85.24
36828;BME280;22766;48.042;11.192;2023-03-25T12:51:12;94529.66;;;9.68;84.81
36828;BME280;22766;48.042;11.192;2023-03-25T13:06:44;94522.47;;;12.15;76.43
36828;BME280;22766;48.042;11.192;2023-03-25T13:09:29;94519.09;;;12.29;69.67
36828;BME280;22766;48.042;11.192;2023-03-25T13:12:09;94531.50;;;12.56;69.14
36828;BME280;22766;48.042;11.192;2023-03-25T13:14:59;94521.69;;;13.18;65.01
36828;BME280;22766;48.042;11.192;2023-03-25T13:17:41;94528.81;;;11.82;68.62
36828;BME280;22766;48.042;11.192;2023-03-25T13:20:11;94535.50;;;11.68;72.40
36828;BME280;22766;48.042;11.192;2023-03-25T13:22:43;94513.50;;;12.63;63.65
36828;BME280;22766;48.042;11.192;2023-03-25T13:25:19;94526.31;;;12.19;68.28
36828;BME280;22766;48.042;11.192;2023-03-25T13:27:48;94530.50;;;11.97;69.89
36828;BME280;22766;48.042;11.192;2023-03-25T13:30:21;94514.03;;;12.36;64.62
36828;BME280;22766;48.042;11.192;2023-03-25T13:32:54;94531.69;;;12.55;61.73
36828;BME280;22766;48.042;11.192;2023-03-25T13:35:34;94522.00;;;13.00;58.96
36828;BME280;22766;48.042;11.192;2023-03-25T13:38:10;94527.09;;;12.19;61.30
36828;BME280;22766;48.042;11.192;2023-03-25T13:40:51;94529.28;;;11.55;64.42
36828;BME280;22766;48.042;11.192;2023-03-25T13:46:43;94540.06;;;12.42;62.79
36828;BME280;22766;48.042;11.192;2023-03-25T13:49:27;94542.75;;;12.03;62.91
36828;BME280;22766;48.042;11.192;2023-03-25T13:51:55;94542.13;;;12.24;62.55
36828;BME280;22766;48.042;11.192;2023-03-25T13:54:35;94535.09;;;12.55;60.99
36828;BME280;22766;48.042;11.192;2023-03-25T14:03:10;94525.63;;;13.14;56.94
36828;BME280;22766;48.042;11.192;2023-03-25T14:08:54;94525.69;;;12.91;56.37
36828;BME280;22766;48.042;11.192;2023-03-25T14:11:32;94518.78;;;13.57;55.34
36828;BME280;22766;48.042;11.192;2023-03-25T14:14:09;94558.41;;;13.07;51.88
36828;BME280;22766;48.042;11.192;2023-03-25T14:16:43;94516.22;;;13.13;54.79
36828;BME280;22766;48.042;11.192;2023-03-25T14:19:13;94521.81;;;13.60;52.86
36828;BME280;22766;48.042;11.192;2023-03-25T14:21:45;94532.06;;;14.04;50.37
36828;BME280;22766;48.042;11.192;2023-03-25T14:24:15;94528.44;;;13.34;51.54
36828;BME280;22766;48.042;11.192;2023-03-25T14:26:49;94517.72;;;13.51;51.46
36828;BME280;22766;48.042;11.192;2023-03-25T14:32:27;94506.59;;;13.22;50.17
36828;BME280;22766;48.042;11.192;2023-03-25T14:48:41;94490.06;;;14.15;48.28
36828;BME280;22766;48.042;11.192;2023-03-25T14:53:41;94491.69;;;14.37;45.92
36828;BME280;22766;48.042;11.192;2023-03-25T14:56:17;94497.94;;;13.65;48.46
36828;BME280;22766;48.042;11.192;2023-03-25T14:58:50;94488.44;;;13.93;47.91
36828;BME280;22766;48.042;11.192;2023-03-25T15:01:19;94496.47;;;13.77;48.34
36828;BME280;22766;48.042;11.192;2023-03-25T15:03:47;94495.75;;;12.37;52.54
36828;BME280;22766;48.042;11.192;2023-03-25T15:06:31;94499.75;;;11.49;58.87
36828;BME280;22766;48.042;11.192;2023-03-25T15:09:01;94499.38;;;11.21;63.30
36828;BME280;22766;48.042;11.192;2023-03-25T15:11:32;94495.88;;;12.21;59.63
36828;BME280;22766;48.042;11.192;2023-03-25T15:14:03;94500.22;;;13.24;56.34
36828;BME280;22766;48.042;11.192;2023-03-25T15:19:12;94518.81;;;11.40;62.24
36828;BME280;22766;48.042;11.192;2023-03-25T15:24:28;94517.06;;;10.94;68.56
36828;BME280;22766;48.042;11.192;2023-03-25T15:26:57;94529.00;;;11.42;68.25
36828;BME280;22766;48.042;11.192;2023-03-25T15:51:38;94495.63;;;11.32;67.07
36828;BME280;22766;48.042;11.192;2023-03-25T15:59:45;94490.13;;;11.27;67.47
36828;BME280;22766;48.042;11.192;2023-03-25T16:02:26;94490.50;;;10.69;70.44